Niko — D6DO6 — position and weather

sailwx.info

Track history (hours):
 
Tides and Currents Weather Stations Pressure Air Temp Water Temp Dewpoint Dewpoint Depression Visibility Wind Speed Wind Dir Waves Ship Positions

Niko

Last reported at 2018-Jul-16 07:18 UTC. Time now 2018-Jul-17 00:10 UTC.
Position N 45°15' E 036°28'.

Length 77 m; draft 4.8 m.

Type: Tanker. MMSI: 616505000.

Date/timePositionNaut miles runAvg speedWind from/ knotsBaromVisibWave heightAir tempDewpointWater temp
2018-Jul-16 07:18N 45°15' E 036°28'3 5.8
2018-Jul-16 06:49N 45°18' E 036°29'3 6.7
2018-Jul-16 06:18N 45°20' E 036°34'2 7.1
2018-Jul-16 06:00N 45°20' E 036°36'3 6.6
2018-Jul-16 05:30N 45°23' E 036°40'  
2018-Jul-13 22:46N 45°24' E 036°41'2 8.0
2018-Jul-13 22:30N 45°22' E 036°40'3 6.3
2018-Jul-13 22:00N 45°20' E 036°36'8 4.6
2018-Jul-13 20:17N 45°14' E 036°29'144 7.6
2018-Jul-13 01:17N 42°50' E 036°27'  
2018-Jul-08 00:19N 45°20' E 036°34'2 7.3
2018-Jul-08 00:00N 45°20' E 036°37'4 7.1
2018-Jul-07 23:31N 45°23' E 036°40'4 6.9
2018-Jul-07 22:57N 45°27' E 036°40'8 1.2
2018-Jul-07 16:16N 45°31' E 036°50'  
Track history (hours):
 
Tides and Currents Weather Stations Pressure Air Temp Water Temp Dewpoint Dewpoint Depression Visibility Wind Speed Wind Dir Waves Ship Positions

Niko

Last reported at 2018-Jul-16 07:18 UTC. Time now 2018-Jul-17 00:10 UTC.
Position N 45°15' E 036°28'.

Length 77 m; draft 4.8 m.

Type: Tanker. MMSI: 616505000.

Date/timePositionNaut miles runAvg speedWind from/ knotsBaromVisibWave heightAir tempDewpointWater temp
2018-Jul-16 07:18N 45°15' E 036°28'3 5.8
2018-Jul-16 06:49N 45°18' E 036°29'3 6.7
2018-Jul-16 06:18N 45°20' E 036°34'2 7.1
2018-Jul-16 06:00N 45°20' E 036°36'3 6.6
2018-Jul-16 05:30N 45°23' E 036°40'  
2018-Jul-13 22:46N 45°24' E 036°41'2 8.0
2018-Jul-13 22:30N 45°22' E 036°40'3 6.3
2018-Jul-13 22:00N 45°20' E 036°36'8 4.6
2018-Jul-13 20:17N 45°14' E 036°29'144 7.6
2018-Jul-13 01:17N 42°50' E 036°27'  
2018-Jul-08 00:19N 45°20' E 036°34'2 7.3
2018-Jul-08 00:00N 45°20' E 036°37'4 7.1
2018-Jul-07 23:31N 45°23' E 036°40'4 6.9
2018-Jul-07 22:57N 45°27' E 036°40'8 1.2
2018-Jul-07 16:16N 45°31' E 036°50'  

Dump ship's entire track history